»·PEaware :: N143VT KRAL-KSAN

N143VT :: KRAL-KSAN

FLIGHT INFORMATION

Flight Status: Arrived
Operator: Privately registered:
United States
More flights under this callsign
Pilot: Justin B. (16492)
Aircraft: Unknown
(EPIC)
More flights by this aircraft type
Origin: KRAL Riverside Mun
United States
Destination: KSAN San Diego Intl-Lindbergh
United States
More flights between these airports :: More routes between these airports
Route: +PDZ V186 HAILE V66 MZB
File this flight plan on PilotEdge
Remarks: TEC route ONTN12
Altitude:
(Current/Filed)
11,000ft
Speed:
(Current/Filed)
250kts
Departed: 01-Oct-17 01:40 PM
Arrived: 01-Oct-17 02:14 PM
Distance/Time
Traveled:
74nm/0:34
Distance/Time
To Go:
Arrived

Flight Plot

Page will automatically refresh every two minutes.


Map Options




Map Legend


Flown Route
Filed Route
Departure Airport
Arrival Airport
Navaid (VOR, NDB)
Fix

Horizontal Profiles

Position Reports

Time Latitude Longitude Heading Altitude Ground
Speed
01-Oct-17 13:24 33.951100 -117.444353 282 820ft 0kts
01-Oct-17 13:25 33.951100 -117.444353 282 820ft 0kts
01-Oct-17 13:26 33.951100 -117.444353 282 820ft 0kts
01-Oct-17 13:27 33.951100 -117.444353 282 820ft 0kts
01-Oct-17 13:28 33.951100 -117.444353 282 820ft 0kts
01-Oct-17 13:29 33.951100 -117.444353 282 820ft 0kts
01-Oct-17 13:30 33.951100 -117.444353 282 820ft 0kts
01-Oct-17 13:31 33.951100 -117.444353 282 820ft 0kts
01-Oct-17 13:32 33.951100 -117.444353 282 820ft 0kts
01-Oct-17 13:33 33.951100 -117.444353 282 820ft 0kts
01-Oct-17 13:34 33.951100 -117.444353 282 820ft 0kts
01-Oct-17 13:35 33.951100 -117.444353 282 820ft 0kts
01-Oct-17 13:36 33.951100 -117.444353 282 820ft 0kts
01-Oct-17 13:37 33.951104 -117.444368 279 820ft 1kts
01-Oct-17 13:38 33.951104 -117.444373 278 820ft 0kts
01-Oct-17 13:39 33.951147 -117.444434 339 820ft 1kts
01-Oct-17 13:40 33.951081 -117.441333 100 820ft 7kts
01-Oct-17 13:41 33.950342 -117.437557 100 820ft 15kts
01-Oct-17 13:42 33.949925 -117.435001 36 820ft 0kts
01-Oct-17 13:43 33.950549 -117.434903 319 820ft 11kts
01-Oct-17 13:44 33.954741 -117.459238 280 1097ft 142kts
01-Oct-17 13:45 33.963079 -117.512203 280 2246ft 169kts
01-Oct-17 13:46 33.929688 -117.533289 170 3674ft 180kts
01-Oct-17 13:47 33.887294 -117.503353 145 5854ft 181kts
01-Oct-17 13:48 33.845288 -117.468468 144 7763ft 189kts
01-Oct-17 13:49 33.801328 -117.431702 144 9471ft 197kts
01-Oct-17 13:50 33.755912 -117.393687 145 10938ft 208kts
01-Oct-17 13:51 33.702003 -117.348758 145 10997ft 256kts
01-Oct-17 13:52 33.641848 -117.298639 145 10991ft 270kts
01-Oct-17 13:53 33.579750 -117.246970 145 10989ft 274kts
01-Oct-17 13:54 33.520534 -117.197814 145 10986ft 275kts
01-Oct-17 13:55 33.454980 -117.158294 170 10981ft 260kts
01-Oct-17 13:56 33.384895 -117.142082 172 10980ft 256kts
01-Oct-17 13:57 33.315307 -117.127146 172 10981ft 255kts
01-Oct-17 13:58 33.245719 -117.112387 172 10982ft 254kts
01-Oct-17 13:59 33.177214 -117.094051 151 10980ft 257kts
01-Oct-17 14:00 33.116670 -117.051121 151 9346ft 243kts
01-Oct-17 14:01 33.066186 -117.014248 151 7702ft 226kts
01-Oct-17 14:02 33.018867 -116.979122 151 6969ft 163kts
01-Oct-17 14:03 32.988587 -116.955360 150 6984ft 115kts
01-Oct-17 14:04 32.954552 -116.929370 151 7025ft 189kts
01-Oct-17 14:05 32.906998 -116.895211 151 6993ft 200kts
01-Oct-17 14:06 32.860024 -116.863959 150 6987ft 202kts
01-Oct-17 14:07 32.808957 -116.830377 151 5580ft 211kts
01-Oct-17 14:08 32.760419 -116.825155 190 5024ft 158kts
01-Oct-17 14:09 32.718097 -116.835969 192 5025ft 157kts
01-Oct-17 14:10 32.699292 -116.882970 250 5005ft 166kts
01-Oct-17 14:11 32.686808 -116.935627 250 4995ft 165kts
01-Oct-17 14:12 32.674382 -116.987845 250 4987ft 162kts
01-Oct-17 14:13 32.693922 -117.023831 350 5372ft 157kts
01-Oct-17 14:14 32.738286 -117.044777 272 3637ft 188kts
01-Oct-17 14:15 32.711451 -117.090316 259 2019ft 173kts
01-Oct-17 14:16 32.720851 -117.135611 281 1120ft 120kts
01-Oct-17 14:17 32.729065 -117.170658 279 258ft 104kts
01-Oct-17 14:18 32.733671 -117.188145 359 21ft 9kts
01-Oct-17 14:19 32.733411 -117.184435 120 21ft 17kts
01-Oct-17 14:20 32.732783 -117.179388 27 21ft 15kts
01-Oct-17 14:21 32.733417 -117.178627 48 21ft 0kts
01-Oct-17 14:22 32.733417 -117.178627 48 21ft 0kts

Navigation Log

Ident Type
1. KRAL Airport
2. PDZ Navaid
3. NIKKL Fix
4. WESIN Fix
5. TANNR Fix
6. DEGLE Fix
7. ROBNN Fix
8. HAILE Fix
9. MZB Navaid
10. KSAN Airport